クェゼリン環礁 の空港の天気 - METARとTAF

バックホルツ陸軍飛行場 ( PKWA / KWA ) - マーシャル諸島 クェゼリン環礁
飛行場実況気象(Metar)
観測時間07/23 06:20 MHT (07/22 18:20 UTC)
風向・風速静穏 0m/s
視程10km以上
天気現象
なし
気温26.5℃
湿度82%
気圧1009hPa
METARPKWA 221820Z AUTO 00000KT 10SM CLR 27/23 A2980 RMK AO2 T02650232
過去の天気等 Google飛行場航空写真 Wunderground天気予報

過去48時間のMETAR

飛行場予報(TAF)
発表時間: 7/23 05:26 MHT (7/22 17:26 UTC)
予報対象時間: 23日6時 MHT ~ 24日6時 MHT
風向・風速不定 3m/s
視程10km以上
天気現象周辺でしゅう雨
少しの雲 雲底高度 550m
全天の4割程度の雲 雲底高度 1070m
全天の4割程度の雲 雲底高度 4270m
PKWA 221726Z 2218/2318 VRB06KT P6SM VCSH FEW018 SCT035 SCT140